NLSK1: Solomon River, Niles, KS

                                SHEF ID:       NLSK1     SOLOMON R AT NILES, KS
STATION TYPE:

PRECIP STAGE RIV-FLOW BAT-LOAD
in ft cfs volt
Ccp-Rev Ccp-Rev Ccp-Rev Ccp-Rev
(America/Chicago)
07/01 00:00 0.00 8.77 758 11.73
07/01 01:00 0.00 8.72 748 11.71
07/01 02:00 0.00 8.66 736 11.66
07/01 03:00 0.00 8.60 724 11.66
07/01 04:00 0.00 8.55 714 11.65
07/01 05:00 0.00 8.49 702 11.65
07/01 06:00 0.00 8.44 693 11.62
07/01 07:00 0.00 8.38 681 11.66
07/01 08:00 0.00 8.31 668 11.68
07/01 09:00 0.00 8.28 662 11.72
07/01 10:00 0.00 8.23 653 11.79
07/01 11:00 0.00 8.18 643 12.29
07/01 12:00 0.00 8.13 634 12.21
07/01 13:00 0.00 8.08 625 12.22
07/01 14:00 0.00 8.03 615 11.95
07/01 15:00 0.00 7.98 606 12.19
07/01 16:00 0.00 7.93 597 12.07
07/01 17:00 0.00 7.88 588 12.36
07/01 18:00 0.00 7.84 581 12.04
07/01 19:00 0.00 7.79 572 11.88
07/01 20:00 0.00 7.74 563 11.77
07/01 21:00 0.00 7.69 554 11.70
07/01 22:00 0.00 7.66 549 11.71
07/01 23:00 ---- 7.61 540 11.77
Data processed at Thu 02Jul2026 04:41 GMT

NOTICE: If you are parsing this page

Please convert to using our Data API. Starting early 2026 we will be migrating to: https://water.usace.army.mil with modern pages rendered in JavaScript. When this migration completes you will no longer be able to scrape this page! CWMSDataAPI (CDA)

Timeseries IDs (TSIDs)

TSIDs used from left to right in the data table
NLSK.Precip-Inc.Total.1Hour.1Hour.Ccp-Rev
NLSK.Stage.Inst.1Hour.0.Ccp-Rev
NLSK.Flow.Inst.1Hour.0.Ccp-Rev
NLSK.Volt-Battery Load.Inst.1Hour.0.Ccp-Rev

                            

All information presented herein is the property of the government of the United States of America and may be revised or deleted at any time without prior notice. Dissemination of this information without the expressed written consent of the Public Affairs Office, Tulsa District U.S. Army Corps of Engineers is strictly prohibited. These data are gathered electronically and, as presented, have NOT undergone any form of quality control. These data are NOT guaranteed to be valid or correct.